Time;durP1;ratioP1;P1;durP2;ratioP2;P2;SDS_P1;SDS_P2;PMS_P1;PMS_P2;Temp;Humidity;BMP_temperature;BMP_pressure;BME280_temperature;BME280_humidity;BME280_pressure;Samples;Min_cycle;Max_cycle;Signal;HPM_P1;HPM_P2
2023/09/23 00:01:49;;;;;;;0.82;0.82;;;15.20;99.90;;;;;;5001929;28;20117;-85
2023/09/23 00:04:16;;;;;;;0.93;0.70;;;15.20;99.90;;;;;;4996438;28;20057;-85
2023/09/23 00:06:44;;;;;;;0.93;0.80;;;15.20;99.90;;;;;;5012085;28;20029;-85
2023/09/23 00:09:11;;;;;;;1.42;0.80;;;15.10;99.90;;;;;;5015212;28;20022;-84
2023/09/23 00:11:37;;;;;;;1.92;0.85;;;15.10;99.90;;;;;;5015734;28;20018;-84
2023/09/23 00:14:05;;;;;;;1.13;0.73;;;15.10;99.90;;;;;;5015738;28;20072;-84
2023/09/23 00:16:33;;;;;;;1.77;0.63;;;15.00;99.90;;;;;;4999361;28;20026;-85
2023/09/23 00:18:59;;;;;;;1.08;0.80;;;15.00;99.90;;;;;;5017428;28;20045;-85
2023/09/23 00:21:25;;;;;;;0.95;0.70;;;15.00;99.90;;;;;;5015319;28;20034;-85
2023/09/23 00:23:50;;;;;;;1.38;0.90;;;15.00;99.90;;;;;;5016489;28;20044;-85
2023/09/23 00:26:17;;;;;;;0.63;0.60;;;14.90;99.90;;;;;;5016218;28;20446;-85
2023/09/23 00:28:46;;;;;;;2.30;0.80;;;14.90;99.90;;;;;;5016482;28;20029;-84
2023/09/23 00:31:15;;;;;;;6.43;0.80;;;14.90;99.90;;;;;;5018572;28;20056;-85
2023/09/23 00:33:41;;;;;;;1.48;0.95;;;14.90;99.90;;;;;;5036632;28;20061;-85
2023/09/23 00:36:10;;;;;;;1.45;1.00;;;14.80;99.90;;;;;;5035950;28;20033;-85
2023/09/23 00:38:38;;;;;;;3.22;0.85;;;14.80;99.90;;;;;;5018370;28;20446;-85
2023/09/23 00:41:08;;;;;;;1.73;0.77;;;14.70;99.90;;;;;;5018405;28;20013;-85
2023/09/23 00:43:36;;;;;;;1.83;1.10;;;14.70;99.90;;;;;;5018818;28;20430;-84
2023/09/23 00:46:05;;;;;;;0.73;0.73;;;14.70;99.90;;;;;;5018326;28;20020;-85
2023/09/23 00:48:38;;;;;;;1.63;0.82;;;14.70;99.90;;;;;;5018175;28;20014;-85
2023/09/23 00:51:09;;;;;;;1.20;1.00;;;14.60;99.90;;;;;;5035975;28;20048;-86
2023/09/23 00:53:36;;;;;;;;;;;14.60;99.90;;;;;;5018973;28;20116;-85
2023/09/23 00:56:03;;;;;;;1.38;1.00;;;14.60;99.90;;;;;;5036235;28;20387;-85
2023/09/23 00:58:29;;;;;;;1.50;1.10;;;14.50;99.90;;;;;;5001965;28;20052;-84
2023/09/23 01:00:56;;;;;;;1.25;1.00;;;14.50;99.90;;;;;;5018138;28;20029;-85
2023/09/23 01:03:22;;;;;;;1.88;1.00;;;14.50;99.90;;;;;;5018009;28;20017;-85
2023/09/23 01:06:15;;;;;;;1.25;0.88;;;14.50;99.90;;;;;;5001825;28;20022;-85
2023/09/23 01:08:45;;;;;;;1.30;1.00;;;14.50;99.90;;;;;;5002552;28;20081;-85
2023/09/23 01:11:16;;;;;;;1.48;1.30;;;14.50;99.90;;;;;;5017864;28;20465;-85
2023/09/23 01:13:44;;;;;;;1.83;1.40;;;14.50;99.90;;;;;;5018473;28;20120;-85
2023/09/23 01:16:14;;;;;;;2.10;1.80;;;14.50;99.90;;;;;;5017865;28;20028;-84
2023/09/23 01:18:49;;;;;;;4.60;1.98;;;14.50;99.90;;;;;;5016791;28;20465;-85
2023/09/23 01:21:15;;;;;;;3.42;2.85;;;14.50;99.90;;;;;;5035587;28;20386;-85
2023/09/23 01:23:43;;;;;;;3.35;2.80;;;14.50;99.90;;;;;;5018145;28;20041;-85
2023/09/23 01:26:11;;;;;;;3.75;3.30;;;14.50;99.90;;;;;;5001900;28;20018;-85
2023/09/23 01:28:37;;;;;;;5.18;4.40;;;14.50;99.90;;;;;;5018208;28;20021;-83
2023/09/23 01:31:04;;;;;;;4.75;4.25;;;14.50;99.90;;;;;;5018413;28;20096;-85
2023/09/23 01:33:31;;;;;;;5.57;5.07;;;14.50;99.90;;;;;;5048482;28;20060;-85
2023/09/23 01:36:03;;;;;;;7.93;5.82;;;14.40;99.90;;;;;;5059272;28;20048;-85
2023/09/23 01:38:32;;;;;;;6.57;5.38;;;14.40;99.90;;;;;;5041811;28;20026;-85
2023/09/23 01:41:01;;;;;;;6.80;6.10;;;14.40;99.90;;;;;;5024708;28;20006;-84
2023/09/23 01:43:27;;;;;;;6.88;6.20;;;14.40;99.90;;;;;;5031646;28;20443;-84
2023/09/23 01:45:57;;;;;;;7.22;6.53;;;14.40;99.90;;;;;;5018129;28;20029;-85
2023/09/23 01:48:23;;;;;;;7.05;6.35;;;14.40;99.90;;;;;;5035505;28;20029;-85
2023/09/23 01:50:53;;;;;;;7.28;6.57;;;14.40;99.90;;;;;;5017329;28;20052;-85
2023/09/23 01:53:21;;;;;;;7.32;6.60;;;14.40;99.90;;;;;;5000614;28;20481;-85
2023/09/23 01:55:47;;;;;;;7.25;6.55;;;14.40;99.90;;;;;;5017919;28;20025;-85
2023/09/23 01:58:14;;;;;;;7.28;6.57;;;14.40;99.90;;;;;;5000676;28;20049;-85
2023/09/23 02:00:42;;;;;;;7.78;7.10;;;14.40;99.90;;;;;;5000893;28;20049;-85
2023/09/23 02:03:08;;;;;;;8.05;7.25;;;14.40;99.90;;;;;;5016705;28;20017;-85
2023/09/23 02:05:34;;;;;;;8.25;7.50;;;14.40;99.90;;;;;;5000452;28;20025;-85
2023/09/23 02:08:00;;;;;;;7.22;6.53;;;14.50;99.90;;;;;;5000463;28;20377;-84
2023/09/23 02:10:26;;;;;;;9.43;7.68;;;14.50;99.90;;;;;;5016519;28;20021;-85
2023/09/23 02:12:53;;;;;;;9.68;8.55;;;14.50;99.90;;;;;;5016558;28;20480;-85
2023/09/23 02:15:19;;;;;;;9.43;8.43;;;14.50;99.90;;;;;;5034217;28;20438;-85
2023/09/23 02:17:49;;;;;;;9.00;8.10;;;14.50;99.90;;;;;;5016858;28;20028;-85
2023/09/23 02:20:18;;;;;;;9.45;8.55;;;14.50;99.90;;;;;;5000825;28;20025;-85
2023/09/23 02:22:45;;;;;;;9.50;8.15;;;14.50;99.90;;;;;;5016632;28;20088;-85
2023/09/23 02:25:14;;;;;;;9.20;8.30;;;14.50;99.90;;;;;;5000354;28;20124;-84
2023/09/23 02:27:41;;;;;;;9.38;8.45;;;14.60;99.90;;;;;;5000182;28;20369;-85
2023/09/23 02:30:09;;;;;;;10.15;9.07;;;14.60;99.90;;;;;;5015671;28;20041;-85
2023/09/23 02:32:41;;;;;;;9.63;8.73;;;14.60;99.90;;;;;;5016171;28;20029;-85
2023/09/23 02:35:11;;;;;;;10.05;9.05;;;14.60;99.90;;;;;;5016528;28;20025;-85
2023/09/23 02:37:38;;;;;;;9.37;8.47;;;14.60;99.90;;;;;;5016270;28;20109;-84
2023/09/23 02:40:06;;;;;;;10.57;9.48;;;14.60;99.90;;;;;;5034291;28;20108;-84
2023/09/23 02:42:31;;;;;;;9.73;8.73;;;14.60;99.90;;;;;;5015657;28;20025;-84
2023/09/23 02:45:02;;;;;;;10.23;9.13;;;14.60;99.90;;;;;;5000242;28;20025;-85
2023/09/23 02:47:27;;;;;;;9.88;8.95;;;14.60;99.90;;;;;;5016287;28;20010;-85
2023/09/23 02:49:53;;;;;;;10.77;9.68;;;14.60;99.90;;;;;;5016332;28;20334;-85
2023/09/23 02:52:22;;;;;;;10.43;9.45;;;14.60;99.90;;;;;;5016167;28;20361;-84
2023/09/23 02:54:48;;;;;;;10.10;9.10;;;14.70;99.90;;;;;;5016462;28;20096;-85
2023/09/23 02:57:14;;;;;;;11.23;9.50;;;14.60;99.90;;;;;;5033961;28;20018;-85
2023/09/23 02:59:41;;;;;;;11.00;9.90;;;14.60;99.90;;;;;;5033753;28;20021;-85
2023/09/23 03:02:08;;;;;;;11.00;10.00;;;14.60;99.90;;;;;;5015941;28;20026;-85
2023/09/23 03:04:36;;;;;;;10.30;9.30;;;14.60;99.90;;;;;;5016164;28;20018;-84
2023/09/23 03:07:02;;;;;;;10.32;9.13;;;14.70;99.90;;;;;;5016368;28;20032;-84
2023/09/23 03:09:32;;;;;;;10.25;8.95;;;14.60;99.90;;;;;;5016732;28;20509;-85
2023/09/23 03:12:00;;;;;;;10.48;9.18;;;14.70;99.90;;;;;;5017480;28;20018;-85
2023/09/23 03:14:40;;;;;;;10.40;9.30;;;14.60;99.90;;;;;;5024357;28;20033;-85
2023/09/23 03:17:09;;;;;;;9.80;8.82;;;14.60;99.90;;;;;;5025408;28;20018;-85
2023/09/23 03:19:36;;;;;;;10.25;9.23;;;14.60;99.90;;;;;;5040359;28;20037;-85
2023/09/23 03:22:02;;;;;;;10.18;9.18;;;14.60;99.90;;;;;;5040058;28;20022;-84
2023/09/23 03:24:29;;;;;;;10.82;9.65;;;14.60;99.90;;;;;;5036517;28;20093;-85
2023/09/23 03:27:00;;;;;;;10.38;8.93;;;14.60;99.90;;;;;;5001250;28;20503;-84
2023/09/23 03:29:28;;;;;;;11.00;9.45;;;14.60;99.90;;;;;;5016535;28;20042;-85
2023/09/23 03:31:56;;;;;;;11.20;9.38;;;14.60;99.90;;;;;;5015949;28;20025;-84
2023/09/23 03:34:26;;;;;;;10.20;9.20;;;14.60;99.90;;;;;;5033391;28;20032;-84
2023/09/23 03:36:53;;;;;;;9.50;8.60;;;14.60;99.90;;;;;;5015831;28;20052;-84
2023/09/23 03:39:19;;;;;;;9.82;8.82;;;14.60;99.90;;;;;;5015720;28;20342;-84
2023/09/23 03:41:46;;;;;;;9.52;8.63;;;14.60;99.90;;;;;;5015874;28;20088;-85
2023/09/23 03:44:16;;;;;;;9.55;8.65;;;14.70;99.90;;;;;;5018713;28;20090;-84
2023/09/23 03:47:08;;;;;;;10.40;9.27;;;14.70;99.90;;;;;;5019350;28;20071;-85
2023/09/23 03:49:34;;;;;;;8.95;8.15;;;14.70;99.90;;;;;;5036772;28;20453;-84
2023/09/23 03:52:00;;;;;;;10.18;9.18;;;14.70;99.90;;;;;;5019520;28;20032;-85
2023/09/23 03:54:28;;;;;;;9.63;8.63;;;14.70;99.90;;;;;;5003492;28;20041;-85
2023/09/23 03:56:53;;;;;;;10.10;9.10;;;14.70;99.90;;;;;;5019232;28;20022;-84
2023/09/23 03:59:19;;;;;;;11.05;9.95;;;14.70;99.90;;;;;;5037231;28;20025;-84
2023/09/23 04:01:45;;;;;;;11.38;10.23;;;14.70;99.90;;;;;;5002889;28;20026;-84
2023/09/23 04:04:14;;;;;;;10.48;9.23;;;14.70;99.90;;;;;;5003366;28;20041;-85
2023/09/23 04:06:40;;;;;;;11.02;9.35;;;14.70;99.90;;;;;;5019070;28;20126;-84
2023/09/23 04:09:07;;;;;;;11.13;9.65;;;14.70;99.90;;;;;;5018893;28;20368;-85
2023/09/23 04:11:35;;;;;;;11.10;9.68;;;14.70;99.90;;;;;;5036381;28;20024;-84
2023/09/23 04:14:03;;;;;;;11.32;9.68;;;14.70;99.90;;;;;;5019534;28;20017;-84
2023/09/23 04:16:30;;;;;;;12.23;9.60;;;14.60;99.90;;;;;;5019532;28;20029;-84
2023/09/23 04:18:56;;;;;;;11.57;9.27;;;14.70;99.90;;;;;;5018849;28;20018;-85
2023/09/23 04:21:25;;;;;;;10.20;9.18;;;14.70;99.90;;;;;;5018723;28;20343;-84
2023/09/23 04:23:52;;;;;;;9.77;8.77;;;14.70;99.90;;;;;;5018689;28;20029;-84
2023/09/23 04:26:21;;;;;;;10.15;9.07;;;14.70;99.90;;;;;;5018844;28;20018;-84
2023/09/23 04:28:51;;;;;;;12.98;9.65;;;14.70;99.90;;;;;;5018362;28;20018;-85
2023/09/23 04:31:18;;;;;;;11.68;10.43;;;14.70;99.90;;;;;;4986770;28;20045;-84
2023/09/23 04:33:44;;;;;;;11.23;10.02;;;14.70;99.90;;;;;;5036066;28;20029;-85
2023/09/23 04:36:11;;;;;;;10.77;9.68;;;14.60;99.90;;;;;;5018753;28;20142;-85
2023/09/23 04:38:37;;;;;;;12.10;10.30;;;14.60;99.90;;;;;;5001955;28;20367;-84
2023/09/23 04:41:02;;;;;;;11.20;10.07;;;14.60;99.90;;;;;;5002324;28;20028;-84
2023/09/23 04:43:30;;;;;;;10.80;9.57;;;14.70;99.90;;;;;;5018575;28;20032;-85
2023/09/23 04:45:57;;;;;;;10.93;9.82;;;14.60;99.90;;;;;;5002512;28;20028;-85
2023/09/23 04:48:24;;;;;;;14.32;9.98;;;14.60;99.90;;;;;;5002282;28;20026;-85
2023/09/23 04:50:52;;;;;;;11.40;9.77;;;14.60;99.90;;;;;;5018926;28;20049;-85
2023/09/23 04:53:18;;;;;;;10.93;9.82;;;14.60;99.90;;;;;;5020197;28;20032;-85
2023/09/23 04:55:45;;;;;;;10.93;9.45;;;14.60;99.90;;;;;;5029224;28;20033;-85
2023/09/23 04:58:12;;;;;;;9.80;8.68;;;14.60;99.90;;;;;;5041538;28;20028;-84
2023/09/23 05:00:41;;;;;;;11.85;9.18;;;14.60;99.90;;;;;;5025230;28;20025;-85
2023/09/23 05:03:08;;;;;;;12.18;9.40;;;14.60;99.90;;;;;;5038142;28;20033;-85
2023/09/23 05:05:34;;;;;;;10.00;8.88;;;14.60;99.90;;;;;;5026756;28;20071;-85
2023/09/23 05:08:01;;;;;;;9.13;8.20;;;14.60;99.90;;;;;;5003178;28;20052;-84
2023/09/23 05:10:28;;;;;;;9.57;8.48;;;14.60;99.90;;;;;;5002681;28;20029;-85
2023/09/23 05:12:56;;;;;;;10.73;9.43;;;14.60;99.90;;;;;;5018060;28;20017;-85
2023/09/23 05:15:24;;;;;;;9.10;8.18;;;14.60;99.90;;;;;;5018099;28;20369;-85
2023/09/23 05:17:50;;;;;;;10.45;9.20;;;14.60;99.90;;;;;;5017625;28;20433;-85
2023/09/23 05:20:18;;;;;;;11.15;8.23;;;14.60;99.90;;;;;;4985064;28;20030;-84
2023/09/23 05:22:44;;;;;;;10.15;8.27;;;14.60;99.90;;;;;;5001414;28;20053;-84
2023/09/23 05:25:11;;;;;;;10.10;8.07;;;14.60;99.90;;;;;;5017665;28;20056;-84
2023/09/23 05:27:40;;;;;;;8.63;7.72;;;14.60;99.90;;;;;;5017253;28;20423;-84
2023/09/23 05:30:10;;;;;;;9.55;7.88;;;14.60;99.90;;;;;;5017008;28;20037;-85
2023/09/23 05:32:39;;;;;;;8.87;7.83;;;14.60;99.90;;;;;;5035226;28;20029;-84
2023/09/23 05:35:11;;;;;;;8.35;7.38;;;14.60;99.90;;;;;;5035001;28;20268;-84
2023/09/23 05:37:37;;;;;;;9.68;7.13;;;14.60;99.90;;;;;;5001311;28;20450;-84
2023/09/23 05:40:27;;;;;;;10.13;6.95;;;14.60;99.90;;;;;;5034417;28;20018;-84
2023/09/23 05:42:56;;;;;;;8.07;6.50;;;14.60;99.90;;;;;;5034644;28;20346;-85
2023/09/23 05:45:24;;;;;;;7.90;6.28;;;14.60;99.90;;;;;;5000582;28;20470;-84
2023/09/23 05:47:52;;;;;;;9.18;6.35;;;14.60;99.90;;;;;;5017094;28;20531;-84
2023/09/23 05:50:19;;;;;;;8.52;6.35;;;14.60;99.90;;;;;;5001078;28;20021;-84
2023/09/23 05:52:45;;;;;;;7.63;5.50;;;14.60;99.90;;;;;;5017032;28;20017;-85
2023/09/23 05:55:11;;;;;;;7.20;5.35;;;14.60;99.90;;;;;;5000513;28;20061;-85
2023/09/23 05:57:40;;;;;;;7.57;5.20;;;14.60;99.90;;;;;;5016373;28;20032;-84
2023/09/23 06:00:11;;;;;;;7.85;5.43;;;14.60;99.90;;;;;;5000490;28;20022;-84
2023/09/23 06:02:42;;;;;;;6.45;4.95;;;14.60;99.90;;;;;;5000502;28;20113;-84
2023/09/23 06:05:08;;;;;;;6.90;4.80;;;14.60;99.90;;;;;;5016212;28;20048;-84
2023/09/23 06:07:34;;;;;;;8.60;5.32;;;14.60;99.90;;;;;;5016772;28;20029;-85
2023/09/23 06:10:00;;;;;;;6.20;4.80;;;14.60;99.90;;;;;;5016758;28;20195;-84
2023/09/23 06:12:29;;;;;;;7.47;5.38;;;14.60;99.90;;;;;;5000439;28;20017;-84
2023/09/23 06:14:57;;;;;;;6.15;5.05;;;14.50;99.90;;;;;;5033655;28;20025;-87
2023/09/23 06:17:32;;;;;;;6.55;4.93;;;14.50;99.90;;;;;;5016250;28;20488;-86
2023/09/23 06:19:59;;;;;;;8.35;5.18;;;14.50;99.90;;;;;;5017987;28;20026;-86
2023/09/23 06:22:26;;;;;;;6.40;4.82;;;14.50;99.90;;;;;;5000125;28;20025;-86
2023/09/23 06:24:52;;;;;;;8.98;5.30;;;14.50;99.90;;;;;;5016392;28;20353;-85
2023/09/23 06:27:19;;;;;;;8.25;5.50;;;14.60;99.90;;;;;;5016248;28;20037;-85
2023/09/23 06:29:45;;;;;;;8.63;5.53;;;14.60;99.90;;;;;;5012448;28;20096;-85
2023/09/23 06:32:12;;;;;;;6.45;5.07;;;14.60;99.90;;;;;;5012874;28;20116;-87
2023/09/23 06:34:38;;;;;;;8.45;5.40;;;14.60;99.90;;;;;;5013453;28;20022;-85
2023/09/23 06:37:03;;;;;;;6.80;5.20;;;14.60;99.90;;;;;;5017537;28;20029;-85
2023/09/23 06:39:29;;;;;;;7.78;5.43;;;14.60;99.90;;;;;;5035081;28;20018;-86
2023/09/23 06:41:55;;;;;;;6.57;5.70;;;14.60;99.90;;;;;;5037300;28;20078;-85
2023/09/23 06:44:21;;;;;;;8.35;5.10;;;14.60;99.90;;;;;;5036923;28;20006;-85
2023/09/23 06:46:49;;;;;;;7.43;5.82;;;14.60;99.90;;;;;;5037488;28;20040;-84
2023/09/23 06:49:15;;;;;;;6.00;5.40;;;14.60;99.90;;;;;;5031062;28;20018;-85
2023/09/23 06:51:41;;;;;;;7.80;5.95;;;14.70;99.90;;;;;;5020728;28;20410;-85
2023/09/23 06:54:07;;;;;;;7.35;6.40;;;14.70;99.90;;;;;;5012786;28;20021;-85
2023/09/23 06:56:38;;;;;;;7.13;5.55;;;14.70;99.90;;;;;;5012945;28;20018;-87
2023/09/23 06:59:07;;;;;;;6.95;5.72;;;14.70;99.90;;;;;;4996690;28;20469;-85
2023/09/23 07:01:34;;;;;;;6.85;5.72;;;14.70;99.90;;;;;;5012596;28;20053;-85
2023/09/23 07:04:03;;;;;;;8.00;6.25;;;14.80;99.90;;;;;;4980176;28;20034;-86
2023/09/23 07:06:29;;;;;;;10.05;5.90;;;14.80;99.90;;;;;;4996119;28;20025;-85
2023/09/23 07:08:57;;;;;;;6.38;4.93;;;14.80;99.90;;;;;;5012807;28;20030;-85
2023/09/23 07:11:23;;;;;;;7.97;5.60;;;14.80;99.90;;;;;;5012568;28;20018;-85
2023/09/23 07:13:49;;;;;;;7.85;5.60;;;14.80;99.90;;;;;;5013700;28;20018;-87
2023/09/23 07:16:15;;;;;;;6.93;5.35;;;14.90;99.90;;;;;;5013216;28;20032;-86
2023/09/23 07:18:41;;;;;;;6.78;5.22;;;14.90;99.90;;;;;;5016485;28;20446;-86
2023/09/23 07:21:09;;;;;;;5.47;4.72;;;14.90;99.90;;;;;;5016223;28;20477;-86
2023/09/23 07:23:35;;;;;;;5.55;4.15;;;15.00;99.90;;;;;;5018012;28;20029;-86
2023/09/23 07:26:02;;;;;;;7.72;4.53;;;15.00;99.90;;;;;;5000125;28;20065;-85
2023/09/23 07:28:28;;;;;;;6.35;3.90;;;15.00;99.90;;;;;;5016484;28;20021;-86
2023/09/23 07:30:54;;;;;;;5.78;4.57;;;15.10;99.90;;;;;;4999736;28;20050;-85
2023/09/23 07:33:20;;;;;;;5.22;4.32;;;15.10;99.90;;;;;;5017648;28;20054;-85
2023/09/23 07:35:45;;;;;;;6.22;4.20;;;15.10;99.90;;;;;;4999885;28;20034;-85
2023/09/23 07:38:11;;;;;;;5.60;4.07;;;15.10;99.90;;;;;;5016953;28;20026;-84
2023/09/23 07:40:41;;;;;;;5.72;4.13;;;15.10;99.90;;;;;;4983937;28;20033;-86
2023/09/23 07:43:07;;;;;;;5.50;3.47;;;15.20;99.90;;;;;;5017267;28;20025;-85
2023/09/23 07:45:33;;;;;;;6.85;4.18;;;15.20;99.90;;;;;;5015848;28;20022;-84
2023/09/23 07:47:59;;;;;;;6.45;4.03;;;15.30;99.90;;;;;;5015775;28;20018;-86
2023/09/23 07:50:25;;;;;;;7.40;4.32;;;15.40;99.90;;;;;;5015819;28;20516;-84
2023/09/23 07:52:53;;;;;;;6.85;3.88;;;15.40;99.90;;;;;;5015755;28;20025;-86
2023/09/23 07:55:19;;;;;;;4.78;3.30;;;15.40;99.90;;;;;;5015774;28;20447;-87
2023/09/23 07:57:44;;;;;;;5.20;3.40;;;15.40;99.90;;;;;;5015894;28;20032;-86
2023/09/23 08:00:13;;;;;;;5.95;3.67;;;15.40;99.90;;;;;;5015928;28;20018;-87
2023/09/23 08:02:39;;;;;;;5.60;3.47;;;15.50;99.90;;;;;;5016042;28;20121;-85
2023/09/23 08:05:08;;;;;;;5.38;3.15;;;15.50;99.90;;;;;;4999248;28;20068;-85
2023/09/23 08:07:34;;;;;;;4.43;3.20;;;15.60;99.90;;;;;;5017046;28;20045;-87
2023/09/23 08:09:59;;;;;;;3.83;2.90;;;15.70;99.90;;;;;;5016889;28;20439;-87
2023/09/23 08:12:25;;;;;;;5.63;3.00;;;15.70;99.90;;;;;;4999373;28;20112;-87
2023/09/23 08:14:54;;;;;;;5.88;3.28;;;15.80;99.90;;;;;;5015962;28;20026;-87
2023/09/23 08:17:26;;;;;;;6.53;3.10;;;15.80;99.90;;;;;;5016258;28;20029;-86
2023/09/23 08:19:53;;;;;;;5.20;3.50;;;15.90;99.90;;;;;;5004354;28;20028;-87
2023/09/23 08:22:18;;;;;;;4.43;3.20;;;15.90;99.90;;;;;;5039290;28;20006;-87
2023/09/23 08:24:44;;;;;;;6.40;4.05;;;16.00;99.90;;;;;;5039871;28;20024;-86
2023/09/23 08:27:10;;;;;;;5.07;3.20;;;16.10;99.90;;;;;;5039434;28;20018;-86
2023/09/23 08:29:36;;;;;;;4.40;2.72;;;16.10;99.90;;;;;;5038508;28;20050;-87
2023/09/23 08:32:02;;;;;;;5.72;2.88;;;16.10;99.90;;;;;;5020438;28;20044;-87
2023/09/23 08:34:27;;;;;;;4.13;2.80;;;16.20;99.90;;;;;;5016732;28;20458;-87
2023/09/23 08:37:00;;;;;;;4.70;2.90;;;16.30;99.90;;;;;;5016371;28;20022;-86
2023/09/23 08:39:44;;;;;;;4.00;2.83;;;16.40;99.90;;;;;;5014886;28;20022;-87
2023/09/23 08:42:17;;;;;;;5.43;2.83;;;16.50;99.90;;;;;;5014588;28;20140;-87
2023/09/23 08:44:43;;;;;;;4.38;2.47;;;16.60;99.90;;;;;;5015086;28;20120;-87
2023/09/23 08:47:17;;;;;;;5.85;3.10;;;16.60;99.90;;;;;;5015910;28;20057;-86
2023/09/23 08:49:46;;;;;;;2.83;2.33;;;16.60;99.90;;;;;;5014983;28;20053;-88
2023/09/23 08:52:13;;;;;;;5.18;2.67;;;16.70;99.90;;;;;;5016307;28;20018;-87
2023/09/23 08:54:46;;;;;;;3.65;2.30;;;16.70;99.90;;;;;;5014379;28;20117;-87
2023/09/23 08:57:19;;;;;;;3.97;2.70;;;16.70;99.90;;;;;;5016032;28;20018;-87
2023/09/23 08:59:45;;;;;;;3.63;2.30;;;16.70;99.90;;;;;;5014832;28;20462;-86
2023/09/23 09:02:25;;;;;;;6.63;3.17;;;16.80;99.90;;;;;;4998461;28;20040;-87
2023/09/23 09:04:58;;;;;;;4.75;2.35;;;16.80;99.90;;;;;;4998953;28;20030;-87
2023/09/23 09:07:44;;;;;;;4.40;2.58;;;16.90;99.90;;;;;;5014705;28;20026;-87
2023/09/23 09:10:10;;;;;;;4.53;2.28;;;16.90;99.90;;;;;;5015177;28;20125;-87
2023/09/23 09:12:41;;;;;;;3.53;2.30;;;16.90;99.90;;;;;;5014772;28;20118;-86
2023/09/23 09:15:10;;;;;;;5.07;2.47;;;16.90;99.90;;;;;;5014294;28;20030;-87
2023/09/23 09:17:36;;;;;;;4.45;2.17;;;16.90;99.90;;;;;;5014365;28;20014;-88
2023/09/23 09:20:09;;;;;;;4.10;1.98;;;16.90;99.90;;;;;;5014224;28;20113;-86
2023/09/23 09:22:36;;;;;;;4.00;2.25;;;16.90;99.90;;;;;;5014282;28;20017;-86
2023/09/23 09:25:20;;;;;;;4.40;2.20;;;17.00;99.90;;;;;;5015607;28;20018;-86
2023/09/23 09:27:46;;;;;;;4.68;2.17;;;17.00;99.90;;;;;;4998394;28;20030;-87
2023/09/23 09:30:13;;;;;;;4.57;2.08;;;17.00;99.90;;;;;;4997301;28;20042;-87
2023/09/23 09:32:44;;;;;;;4.15;2.10;;;17.00;99.90;;;;;;5015255;28;20028;-86
2023/09/23 09:35:19;;;;;;;5.18;2.38;;;17.00;99.90;;;;;;5013986;28;20018;-87
2023/09/23 09:37:53;;;;;;;5.78;2.38;;;17.00;99.90;;;;;;5014435;28;20045;-86
2023/09/23 09:40:23;;;;;;;7.30;2.47;;;17.00;99.90;;;;;;5013119;28;20018;-88
2023/09/23 09:42:57;;;;;;;5.07;2.30;;;16.90;99.90;;;;;;5015891;28;20032;-89
2023/09/23 09:45:23;;;;;;;4.53;2.13;;;16.90;99.90;;;;;;5014026;28;20353;-87
2023/09/23 09:47:58;;;;;;;5.25;2.45;;;16.90;99.90;;;;;;5014046;28;20075;-87
2023/09/23 09:50:25;;;;;;;3.97;2.30;;;16.90;99.90;;;;;;5014015;28;20029;-87
2023/09/23 09:52:54;;;;;;;4.72;2.20;;;16.90;99.90;;;;;;5015727;28;20482;-88
2023/09/23 09:55:24;;;;;;;4.63;2.40;;;16.90;99.90;;;;;;5014435;28;20025;-87
2023/09/23 09:57:52;;;;;;;5.22;2.22;;;16.90;99.90;;;;;;5014243;28;20405;-87
2023/09/23 10:00:33;;;;;;;6.00;2.40;;;16.90;99.90;;;;;;5015040;28;20018;-88
2023/09/23 10:03:11;;;;;;;4.82;2.13;;;16.90;99.90;;;;;;5017535;28;20022;-88
2023/09/23 10:05:46;;;;;;;4.88;2.10;;;17.00;99.90;;;;;;5023823;28;20017;-87
2023/09/23 10:08:19;;;;;;;4.90;2.40;;;16.90;99.90;;;;;;5032572;28;20026;-87
2023/09/23 10:10:49;;;;;;;3.92;2.35;;;16.90;99.90;;;;;;5036294;28;20057;-87
2023/09/23 10:13:25;;;;;;;5.00;2.25;;;16.90;99.90;;;;;;5021373;28;20033;-85
2023/09/23 10:16:18;;;;;;;4.97;2.47;;;16.90;99.90;;;;;;5036865;28;20087;-87
2023/09/23 10:18:54;;;;;;;4.10;1.98;;;17.00;99.90;;;;;;5015385;28;20033;-87
2023/09/23 10:21:25;;;;;;;5.13;2.53;;;17.00;99.90;;;;;;4999658;28;20111;-87
2023/09/23 10:23:55;;;;;;;3.92;2.30;;;17.00;99.90;;;;;;5013894;28;20025;-87
2023/09/23 10:26:23;;;;;;;6.05;2.58;;;17.00;99.90;;;;;;5014833;28;20058;-87
2023/09/23 10:29:15;;;;;;;3.85;2.45;;;17.00;99.90;;;;;;5014526;28;20018;-87
2023/09/23 10:31:41;;;;;;;5.00;2.10;;;17.00;99.90;;;;;;5008523;28;20073;-87
2023/09/23 10:34:08;;;;;;;5.60;2.00;;;17.00;99.90;;;;;;5013030;28;20077;-88
2023/09/23 10:36:36;;;;;;;3.60;2.30;;;17.10;99.90;;;;;;5012884;28;20026;-88
2023/09/23 10:39:15;;;;;;;5.50;2.30;;;17.10;99.90;;;;;;5013131;28;20026;-88
2023/09/23 10:41:41;;;;;;;6.63;2.10;;;17.10;99.90;;;;;;5014224;28;20022;-87
2023/09/23 10:44:08;;;;;;;4.35;2.10;;;17.20;99.90;;;;;;5013066;28;20025;-87
2023/09/23 10:46:33;;;;;;;3.80;2.05;;;17.30;99.90;;;;;;5012840;28;20030;-88
2023/09/23 10:49:01;;;;;;;4.80;2.22;;;17.30;99.90;;;;;;4996888;28;20084;-89
2023/09/23 10:51:28;;;;;;;3.20;2.30;;;17.40;99.90;;;;;;4996398;28;20022;-87
2023/09/23 10:53:55;;;;;;;5.35;2.40;;;17.40;99.90;;;;;;5014502;28;20096;-86
2023/09/23 10:56:22;;;;;;;5.30;2.22;;;17.50;99.90;;;;;;5014028;28;20025;-86
2023/09/23 10:58:51;;;;;;;2.95;1.80;;;17.60;99.90;;;;;;5012965;28;20477;-87
2023/09/23 11:01:24;;;;;;;3.80;2.00;;;17.60;99.90;;;;;;5012735;28;20132;-88
2023/09/23 11:03:51;;;;;;;3.70;1.98;;;17.70;99.90;;;;;;5012964;28;20102;-87
2023/09/23 11:06:17;;;;;;;3.80;1.80;;;17.70;99.90;;;;;;5012653;28;20458;-87
2023/09/23 11:08:45;;;;;;;4.82;2.10;;;17.80;99.90;;;;;;5012517;28;20026;-87
2023/09/23 11:11:12;;;;;;;4.65;2.10;;;17.80;99.90;;;;;;5012821;28;20026;-87
2023/09/23 11:13:38;;;;;;;3.75;1.90;;;17.80;99.90;;;;;;5012124;28;20462;-87
2023/09/23 11:16:10;;;;;;;3.00;2.00;;;17.80;99.90;;;;;;5013744;28;20120;-85
2023/09/23 11:18:37;;;;;;;2.97;2.00;;;17.80;99.90;;;;;;5012921;28;20018;-88
2023/09/23 11:21:03;;;;;;;3.28;1.77;;;17.80;99.90;;;;;;5011866;28;20014;-88
2023/09/23 11:23:29;;;;;;;3.42;1.80;;;17.90;99.90;;;;;;5011983;28;20026;-87
2023/09/23 11:25:56;;;;;;;3.75;1.80;;;17.90;99.90;;;;;;5013852;28;20018;-87
2023/09/23 11:28:26;;;;;;;4.22;1.88;;;17.90;99.90;;;;;;5011795;28;20053;-88
2023/09/23 11:30:53;;;;;;;3.53;1.60;;;17.90;99.90;;;;;;4995832;28;20058;-88
2023/09/23 11:33:21;;;;;;;3.38;1.77;;;17.80;99.90;;;;;;5012707;28;20025;-87
2023/09/23 11:35:47;;;;;;;4.60;2.00;;;17.80;99.90;;;;;;5012617;28;20037;-88
2023/09/23 11:38:13;;;;;;;6.30;1.70;;;17.80;99.90;;;;;;5012899;28;20026;-88
2023/09/23 11:40:43;;;;;;;4.25;1.60;;;17.80;99.90;;;;;;5012367;28;20014;-89
2023/09/23 11:43:08;;;;;;;5.40;1.88;;;17.70;99.90;;;;;;5012511;28;20032;-87
2023/09/23 11:45:39;;;;;;;3.22;1.67;;;17.70;99.90;;;;;;5012798;28;20533;-89
2023/09/23 11:48:07;;;;;;;3.38;1.63;;;17.70;99.90;;;;;;5013102;28;20113;-88
2023/09/23 11:50:33;;;;;;;3.03;1.65;;;17.70;99.90;;;;;;5013272;28;20017;-88
2023/09/23 11:53:02;;;;;;;3.17;2.00;;;17.60;99.90;;;;;;5015893;28;20362;-88
2023/09/23 11:55:29;;;;;;;2.58;1.73;;;17.70;99.90;;;;;;5020484;28;20056;-86
2023/09/23 11:57:54;;;;;;;2.97;1.77;;;17.70;99.90;;;;;;5025492;28;20061;-88
2023/09/23 12:00:20;;;;;;;4.63;1.75;;;17.70;99.90;;;;;;5020252;28;20022;-88
2023/09/23 12:02:50;;;;;;;4.25;1.90;;;17.70;99.90;;;;;;5017964;28;20025;-87
2023/09/23 12:05:19;;;;;;;5.10;2.00;;;17.70;99.90;;;;;;5034381;28;20025;-88
2023/09/23 12:07:45;;;;;;;2.60;2.15;;;17.70;99.90;;;;;;5019044;28;20020;-88
2023/09/23 12:10:15;;;;;;;4.38;2.05;;;17.80;99.90;;;;;;5016551;28;20029;-88
2023/09/23 12:12:42;;;;;;;3.35;2.00;;;17.80;99.90;;;;;;5015768;28;20084;-87
2023/09/23 12:15:11;;;;;;;5.10;2.25;;;17.90;99.90;;;;;;5015461;28;20022;-87
2023/09/23 12:17:39;;;;;;;6.30;2.22;;;17.90;99.90;;;;;;5015603;28;20506;-86
2023/09/23 12:20:11;;;;;;;4.13;1.80;;;17.90;99.90;;;;;;5015834;28;20026;-86
2023/09/23 12:22:41;;;;;;;6.25;1.85;;;18.00;99.90;;;;;;5000496;28;20022;-87
2023/09/23 12:25:07;;;;;;;3.03;1.70;;;18.00;99.90;;;;;;4999726;28;20018;-87
2023/09/23 12:27:33;;;;;;;5.35;1.95;;;18.00;99.90;;;;;;5015686;28;20017;-88
2023/09/23 12:30:00;;;;;;;3.38;2.00;;;18.10;99.90;;;;;;5015223;28;20053;-87
2023/09/23 12:32:29;;;;;;;4.32;1.67;;;18.10;99.90;;;;;;5016503;28;20030;-87
2023/09/23 12:34:54;;;;;;;3.35;1.55;;;18.10;99.90;;;;;;5014471;28;20117;-85
2023/09/23 12:37:26;;;;;;;3.03;1.30;;;18.10;99.90;;;;;;5015560;28;20506;-88
2023/09/23 12:40:00;;;;;;;4.38;1.70;;;18.10;99.90;;;;;;5015078;28;20454;-87
2023/09/23 12:42:25;;;;;;;3.53;1.75;;;18.10;99.90;;;;;;4983903;28;20125;-87
2023/09/23 12:44:51;;;;;;;2.47;1.42;;;18.10;99.90;;;;;;5014917;28;20120;-87
2023/09/23 12:47:20;;;;;;;3.08;1.35;;;18.20;99.90;;;;;;5014930;28;20017;-87
2023/09/23 12:49:45;;;;;;;1.92;1.17;;;18.20;99.90;;;;;;4999023;28;20030;-87
2023/09/23 12:52:16;;;;;;;3.15;1.20;;;18.30;99.90;;;;;;5014977;28;20036;-87